Time;durP1;ratioP1;P1;durP2;ratioP2;P2;SDS_P1;SDS_P2;PMS_P1;PMS_P2;Temp;Humidity;BMP_temperature;BMP_pressure;BME280_temperature;BME280_humidity;BME280_pressure;Samples;Min_cycle;Max_cycle;Signal;HPM_P1;HPM_P2
2022/11/09 00:00:42;;;;;;;14.90;7.20;;;16.60;86.40;;;;;;5054341;28;20364;-76
2022/11/09 00:03:08;;;;;;;13.98;6.70;;;16.50;86.40;;;;;;5054176;28;20037;-77
2022/11/09 00:05:33;;;;;;;15.45;6.78;;;16.60;86.40;;;;;;5055279;28;20021;-77
2022/11/09 00:07:59;;;;;;;17.98;7.13;;;16.60;86.50;;;;;;5048330;28;20033;-77
2022/11/09 00:10:25;;;;;;;12.60;7.20;;;16.50;86.40;;;;;;5034166;28;20574;-76
2022/11/09 00:12:50;;;;;;;13.80;7.07;;;16.60;86.50;;;;;;5034087;28;20025;-76
2022/11/09 00:15:16;;;;;;;13.32;6.15;;;16.60;86.50;;;;;;5034203;28;20031;-76
2022/11/09 00:17:41;;;;;;;12.75;6.13;;;16.60;86.60;;;;;;5034229;28;20029;-76
2022/11/09 00:20:07;;;;;;;13.00;6.75;;;16.60;86.50;;;;;;5034953;28;20536;-76
2022/11/09 00:22:33;;;;;;;13.35;6.55;;;16.60;86.60;;;;;;5034089;28;20500;-76
2022/11/09 00:24:59;;;;;;;15.00;6.88;;;16.60;86.60;;;;;;5034940;28;20084;-76
2022/11/09 00:27:24;;;;;;;14.48;6.55;;;16.60;86.50;;;;;;5033787;28;20110;-77
2022/11/09 00:29:50;;;;;;;15.23;6.75;;;16.60;86.50;;;;;;5042180;28;20037;-77
2022/11/09 00:32:16;;;;;;;14.73;6.55;;;16.60;86.50;;;;;;5054728;28;20101;-77
2022/11/09 00:34:43;;;;;;;17.33;6.75;;;16.60;86.50;;;;;;5053490;28;20373;-76
2022/11/09 00:37:08;;;;;;;12.52;5.90;;;16.60;86.50;;;;;;5054877;28;20104;-76
2022/11/09 00:39:34;;;;;;;16.25;6.40;;;16.50;86.40;;;;;;5053571;28;20112;-76
2022/11/09 00:41:59;;;;;;;17.63;6.88;;;16.60;86.50;;;;;;5054728;28;20104;-77
2022/11/09 00:44:25;;;;;;;13.23;6.80;;;16.60;86.60;;;;;;5054881;28;20029;-77
2022/11/09 00:46:51;;;;;;;17.48;6.93;;;16.50;86.50;;;;;;5053321;28;20077;-76
2022/11/09 00:49:16;;;;;;;14.43;6.47;;;16.60;86.60;;;;;;5053637;28;20036;-76
2022/11/09 00:51:42;;;;;;;16.50;6.10;;;16.50;86.60;;;;;;5054634;28;20025;-76
2022/11/09 00:54:08;;;;;;;12.77;6.40;;;16.50;86.60;;;;;;5054544;28;20025;-76
2022/11/09 00:56:34;;;;;;;12.85;6.45;;;16.50;86.60;;;;;;5054436;28;20037;-76
2022/11/09 00:58:59;;;;;;;15.10;6.45;;;16.50;86.60;;;;;;5053171;28;20025;-76
2022/11/09 01:01:25;;;;;;;10.68;5.60;;;16.60;86.70;;;;;;5053045;28;20158;-76
2022/11/09 01:03:51;;;;;;;11.55;6.20;;;16.50;86.50;;;;;;5054573;28;20487;-76
2022/11/09 01:06:18;;;;;;;13.93;5.82;;;16.50;86.50;;;;;;5054191;28;20051;-76
2022/11/09 01:08:44;;;;;;;12.43;6.18;;;16.50;86.50;;;;;;5041033;28;20408;-77
2022/11/09 01:11:10;;;;;;;15.48;5.53;;;16.50;86.50;;;;;;5033003;28;20025;-77
2022/11/09 01:13:36;;;;;;;14.48;5.47;;;16.50;86.50;;;;;;5034194;28;20022;-77
2022/11/09 01:16:05;;;;;;;13.70;5.80;;;16.50;86.60;;;;;;5033119;28;20025;-77
2022/11/09 01:18:30;;;;;;;11.35;5.40;;;16.60;86.60;;;;;;5033007;28;20022;-77
2022/11/09 01:20:56;;;;;;;12.05;5.68;;;16.50;86.60;;;;;;5032923;28;20040;-77
2022/11/09 01:23:22;;;;;;;11.30;5.53;;;16.50;86.60;;;;;;5033997;28;20026;-77
2022/11/09 01:25:47;;;;;;;15.15;5.70;;;16.60;86.60;;;;;;5033979;28;20025;-77
2022/11/09 01:28:13;;;;;;;15.77;6.13;;;16.50;86.50;;;;;;5032635;28;20033;-77
2022/11/09 01:30:41;;;;;;;14.43;6.00;;;16.50;86.60;;;;;;5047738;28;20029;-77
2022/11/09 01:33:07;;;;;;;13.70;5.57;;;16.60;86.60;;;;;;5036106;28;20013;-77
2022/11/09 01:35:34;;;;;;;14.18;5.55;;;16.60;86.60;;;;;;5035928;28;20025;-77
2022/11/09 01:38:00;;;;;;;11.90;5.55;;;16.50;86.50;;;;;;5052638;28;20044;-77
2022/11/09 01:40:29;;;;;;;10.32;5.85;;;16.50;86.60;;;;;;5036078;28;20471;-77
2022/11/09 01:42:54;;;;;;;9.90;5.75;;;16.50;86.60;;;;;;5052575;28;20021;-77
2022/11/09 01:45:26;;;;;;;10.30;5.20;;;16.50;86.70;;;;;;5052328;28;20380;-77
2022/11/09 01:47:55;;;;;;;15.77;6.40;;;16.60;86.60;;;;;;5036058;28;20029;-77
2022/11/09 01:50:33;;;;;;;11.75;6.05;;;16.50;86.50;;;;;;5052237;28;20075;-77
2022/11/09 01:52:59;;;;;;;14.23;5.45;;;16.60;86.70;;;;;;5036728;28;20063;-76
2022/11/09 01:55:25;;;;;;;15.27;5.47;;;16.60;86.70;;;;;;5035379;28;20517;-76
2022/11/09 01:57:54;;;;;;;13.20;5.38;;;16.60;86.70;;;;;;5035566;28;20044;-76
2022/11/09 02:00:19;;;;;;;10.73;5.55;;;16.50;86.70;;;;;;5034682;28;20021;-77
2022/11/09 02:02:57;;;;;;;11.63;5.28;;;16.60;86.70;;;;;;5035214;28;20028;-77
2022/11/09 02:05:27;;;;;;;9.43;4.53;;;16.60;86.70;;;;;;5035531;28;20025;-77
2022/11/09 02:07:52;;;;;;;9.30;4.50;;;16.60;86.80;;;;;;5030830;28;20479;-77
2022/11/09 02:10:19;;;;;;;12.15;5.40;;;16.50;86.70;;;;;;5031809;28;20028;-78
2022/11/09 02:12:45;;;;;;;10.60;4.80;;;16.60;86.70;;;;;;5032042;28;20068;-78
2022/11/09 02:15:11;;;;;;;12.27;5.13;;;16.60;86.70;;;;;;5031997;28;20487;-77
2022/11/09 02:17:36;;;;;;;12.40;5.50;;;16.50;86.70;;;;;;5031685;28;20103;-78
2022/11/09 02:20:13;;;;;;;11.82;4.82;;;16.50;86.60;;;;;;5031839;28;20100;-77
2022/11/09 02:22:40;;;;;;;10.00;4.47;;;16.60;86.70;;;;;;5031626;28;20057;-77
2022/11/09 02:25:07;;;;;;;9.48;5.10;;;16.60;86.70;;;;;;5031819;28;20091;-77
2022/11/09 02:27:32;;;;;;;10.30;5.13;;;16.60;86.80;;;;;;5031459;28;20047;-78
2022/11/09 02:29:58;;;;;;;15.30;5.35;;;16.60;86.70;;;;;;5039914;28;20476;-77
2022/11/09 02:32:25;;;;;;;10.68;5.43;;;16.60;86.70;;;;;;5034527;28;20475;-77
2022/11/09 02:34:50;;;;;;;12.02;4.68;;;16.60;86.70;;;;;;5035168;28;20017;-78
2022/11/09 02:37:29;;;;;;;11.50;5.25;;;16.50;86.80;;;;;;5052637;28;20553;-77
2022/11/09 02:39:56;;;;;;;11.90;5.63;;;16.60;86.70;;;;;;5051488;28;20025;-78
2022/11/09 02:42:21;;;;;;;10.68;4.82;;;16.60;86.70;;;;;;5034745;28;20040;-76
2022/11/09 02:44:48;;;;;;;15.18;5.30;;;16.50;86.70;;;;;;5043944;28;20045;-77
2022/11/09 02:47:14;;;;;;;12.65;4.75;;;16.50;86.70;;;;;;5038329;28;20056;-76
2022/11/09 02:49:40;;;;;;;13.55;5.03;;;16.50;86.60;;;;;;5031553;28;20045;-76
2022/11/09 02:52:05;;;;;;;11.13;5.20;;;16.60;86.70;;;;;;5031608;28;20443;-76
2022/11/09 02:54:31;;;;;;;10.27;4.55;;;16.60;86.70;;;;;;5032522;28;20033;-76
2022/11/09 02:56:57;;;;;;;14.05;5.00;;;16.60;86.70;;;;;;5031159;28;20088;-76
2022/11/09 02:59:22;;;;;;;12.23;5.18;;;16.50;86.70;;;;;;5032456;28;20057;-76
2022/11/09 03:01:48;;;;;;;9.48;4.32;;;16.60;86.80;;;;;;5015074;28;20049;-77
2022/11/09 03:04:13;;;;;;;10.45;4.68;;;16.60;86.90;;;;;;5034661;28;20468;-77
2022/11/09 03:06:39;;;;;;;9.40;4.70;;;16.60;86.90;;;;;;5041290;28;20025;-76
2022/11/09 03:09:08;;;;;;;14.50;5.07;;;16.50;86.90;;;;;;5031402;28;20478;-76
2022/11/09 03:11:34;;;;;;;8.32;4.90;;;16.50;86.80;;;;;;5034374;28;20017;-76
2022/11/09 03:13:59;;;;;;;9.52;4.30;;;16.60;86.90;;;;;;5037883;28;20032;-76
2022/11/09 03:16:25;;;;;;;10.18;3.95;;;16.60;86.90;;;;;;5037751;28;20025;-76
2022/11/09 03:18:51;;;;;;;11.90;4.97;;;16.60;86.90;;;;;;5038010;28;20048;-77
2022/11/09 03:21:17;;;;;;;14.15;4.93;;;16.60;86.90;;;;;;5037945;28;20029;-77
2022/11/09 03:23:42;;;;;;;10.85;4.35;;;16.60;86.90;;;;;;5038074;28;20036;-77
2022/11/09 03:26:08;;;;;;;10.23;4.50;;;16.60;86.90;;;;;;5038168;28;20025;-77
2022/11/09 03:28:34;;;;;;;10.93;4.85;;;16.60;86.90;;;;;;5037531;28;20025;-77
2022/11/09 03:30:59;;;;;;;10.35;4.55;;;16.60;86.90;;;;;;5055502;28;20021;-78
2022/11/09 03:33:25;;;;;;;8.68;4.20;;;16.60;86.90;;;;;;5058833;28;20028;-76
2022/11/09 03:35:51;;;;;;;8.88;4.10;;;16.50;86.90;;;;;;5058025;28;20017;-76
2022/11/09 03:38:17;;;;;;;13.25;4.18;;;16.60;86.90;;;;;;5058727;28;20471;-77
2022/11/09 03:40:42;;;;;;;8.73;4.30;;;16.60;86.90;;;;;;5050976;28;20025;-77
2022/11/09 03:43:08;;;;;;;12.93;4.57;;;16.60;86.90;;;;;;5038796;28;20033;-77
2022/11/09 03:45:33;;;;;;;13.02;4.35;;;16.60;86.90;;;;;;5037740;28;20091;-77
2022/11/09 03:47:59;;;;;;;10.77;5.00;;;16.50;86.90;;;;;;5021364;28;20025;-77
2022/11/09 03:50:28;;;;;;;10.43;4.75;;;16.50;87.00;;;;;;5021215;28;20076;-77
2022/11/09 03:52:54;;;;;;;9.57;4.35;;;16.60;87.00;;;;;;5037880;28;20022;-77
2022/11/09 03:55:20;;;;;;;7.53;3.95;;;16.60;87.00;;;;;;5037713;28;20387;-77
2022/11/09 03:57:45;;;;;;;9.57;4.10;;;16.60;87.00;;;;;;5021160;28;20060;-77
2022/11/09 04:00:13;;;;;;;10.68;4.05;;;16.50;87.00;;;;;;5039054;28;20109;-77
2022/11/09 04:02:38;;;;;;;11.88;4.03;;;16.60;87.10;;;;;;5021462;28;20033;-77
2022/11/09 04:05:04;;;;;;;11.05;4.03;;;16.60;87.10;;;;;;5037922;28;20029;-77
2022/11/09 04:07:30;;;;;;;9.65;4.25;;;16.50;87.00;;;;;;5037520;28;20403;-77
2022/11/09 04:09:56;;;;;;;6.88;4.03;;;16.60;87.20;;;;;;5038011;28;20021;-77
2022/11/09 04:12:21;;;;;;;8.68;3.90;;;16.60;87.10;;;;;;5037575;28;20030;-77
2022/11/09 04:14:47;;;;;;;10.48;3.97;;;16.60;87.10;;;;;;5039033;28;20025;-77
2022/11/09 04:17:12;;;;;;;6.50;3.90;;;16.50;87.10;;;;;;5038954;28;20029;-77
2022/11/09 04:19:38;;;;;;;7.72;3.60;;;16.50;87.10;;;;;;5038866;28;20416;-77
2022/11/09 04:22:04;;;;;;;8.30;3.80;;;16.60;87.10;;;;;;5020721;28;20083;-77
2022/11/09 04:24:29;;;;;;;9.65;4.43;;;16.50;87.10;;;;;;5033503;28;20029;-77
2022/11/09 04:26:55;;;;;;;8.02;4.07;;;16.60;87.10;;;;;;5034241;28;20030;-77
2022/11/09 04:29:21;;;;;;;8.65;3.60;;;16.50;87.10;;;;;;5038527;28;20070;-77
2022/11/09 04:31:49;;;;;;;7.97;4.07;;;16.50;87.10;;;;;;5054468;28;20083;-77
2022/11/09 04:34:15;;;;;;;9.30;3.97;;;16.50;87.10;;;;;;5037525;28;20388;-77
2022/11/09 04:36:41;;;;;;;8.75;3.53;;;16.50;87.10;;;;;;5053967;28;20400;-77
2022/11/09 04:39:07;;;;;;;9.60;3.72;;;16.50;87.10;;;;;;5055641;28;20111;-77
2022/11/09 04:41:32;;;;;;;6.85;3.38;;;16.50;87.10;;;;;;5037387;28;20033;-77
2022/11/09 04:43:58;;;;;;;8.32;3.85;;;16.50;87.10;;;;;;5054347;28;20407;-77
2022/11/09 04:46:24;;;;;;;6.93;3.90;;;16.50;87.10;;;;;;5055248;28;20092;-77
2022/11/09 04:48:49;;;;;;;10.00;3.63;;;16.50;87.10;;;;;;5053737;28;20029;-77
2022/11/09 04:51:15;;;;;;;7.53;3.92;;;16.50;87.10;;;;;;5054392;28;20029;-77
2022/11/09 04:53:40;;;;;;;9.32;4.00;;;16.50;87.10;;;;;;5053742;28;20051;-77
2022/11/09 04:56:06;;;;;;;7.07;3.60;;;16.50;87.20;;;;;;5036918;28;20044;-77
2022/11/09 04:58:32;;;;;;;8.25;3.95;;;16.50;87.20;;;;;;5037148;28;20394;-77
2022/11/09 05:01:07;;;;;;;7.43;3.63;;;16.50;87.20;;;;;;5055129;28;20037;-77
2022/11/09 05:03:33;;;;;;;10.10;4.25;;;16.50;87.20;;;;;;5053708;28;20420;-77
2022/11/09 05:05:59;;;;;;;6.05;3.50;;;16.50;87.20;;;;;;5053800;28;20033;-77
2022/11/09 05:08:24;;;;;;;8.57;3.65;;;16.50;87.20;;;;;;5044377;28;20026;-77
2022/11/09 05:10:50;;;;;;;6.82;3.50;;;16.50;87.20;;;;;;5033606;28;20032;-77
2022/11/09 05:13:16;;;;;;;6.63;3.65;;;16.50;87.20;;;;;;5035006;28;20075;-77
2022/11/09 05:15:41;;;;;;;6.43;3.80;;;16.50;87.20;;;;;;5033676;28;20036;-77
2022/11/09 05:18:07;;;;;;;5.10;2.95;;;16.50;87.20;;;;;;5034794;28;20044;-77
2022/11/09 05:20:33;;;;;;;6.50;3.22;;;16.50;87.20;;;;;;5033440;28;20026;-77
2022/11/09 05:25:43;;;;;;;6.15;3.30;;;16.50;87.20;;;;;;5034525;28;20094;-77
2022/11/09 05:28:09;;;;;;;5.20;3.33;;;16.50;87.20;;;;;;5033150;28;20033;-77
2022/11/09 05:30:35;;;;;;;4.25;3.20;;;16.50;87.20;;;;;;5046583;28;20048;-77
2022/11/09 05:33:00;;;;;;;5.22;3.00;;;16.50;87.20;;;;;;5054513;28;20029;-77
2022/11/09 05:35:26;;;;;;;9.10;3.65;;;16.50;87.20;;;;;;5053027;28;20029;-77
2022/11/09 05:37:52;;;;;;;8.88;3.85;;;16.50;87.20;;;;;;5053246;28;20061;-77
2022/11/09 05:40:18;;;;;;;6.35;3.25;;;16.50;87.20;;;;;;5054032;28;20044;-77
2022/11/09 05:42:43;;;;;;;7.20;3.00;;;16.50;87.20;;;;;;5054159;28;20021;-76
2022/11/09 05:45:13;;;;;;;9.45;3.50;;;16.50;87.30;;;;;;5052958;28;20035;-77
2022/11/09 05:47:42;;;;;;;7.97;3.33;;;16.50;87.40;;;;;;5052863;28;20029;-76
2022/11/09 05:50:10;;;;;;;8.20;3.38;;;16.50;87.30;;;;;;5052882;28;20467;-77
2022/11/09 05:52:36;;;;;;;5.97;3.17;;;16.50;87.30;;;;;;5052795;28;20459;-76
2022/11/09 05:55:02;;;;;;;6.50;3.47;;;16.50;87.40;;;;;;5036119;28;20032;-77
2022/11/09 05:57:28;;;;;;;7.10;3.08;;;16.50;87.40;;;;;;5052641;28;20059;-77
2022/11/09 05:59:53;;;;;;;8.90;3.13;;;16.50;87.40;;;;;;5036231;28;20029;-77
2022/11/09 06:02:19;;;;;;;7.22;3.10;;;16.50;87.40;;;;;;5053852;28;20029;-76
2022/11/09 06:04:45;;;;;;;9.98;4.20;;;16.50;87.50;;;;;;5036055;28;20112;-76
2022/11/09 06:07:10;;;;;;;5.32;3.20;;;16.50;87.40;;;;;;5053775;28;20106;-76
2022/11/09 06:09:36;;;;;;;6.90;3.15;;;16.50;87.40;;;;;;5033154;28;20060;-76
2022/11/09 06:12:02;;;;;;;7.70;3.08;;;16.50;87.50;;;;;;5033932;28;20057;-77
2022/11/09 06:14:27;;;;;;;6.20;3.10;;;16.50;87.40;;;;;;5032625;28;20029;-77
2022/11/09 06:16:53;;;;;;;4.47;2.78;;;16.50;87.40;;;;;;5032411;28;20017;-77
2022/11/09 06:19:18;;;;;;;7.00;3.38;;;16.50;87.50;;;;;;5032301;28;20036;-77
2022/11/09 06:21:44;;;;;;;7.88;3.50;;;16.50;87.50;;;;;;5033646;28;20025;-77
2022/11/09 06:24:10;;;;;;;4.50;3.10;;;16.50;87.50;;;;;;5032307;28;20025;-77
2022/11/09 06:26:35;;;;;;;7.75;3.15;;;16.50;87.50;;;;;;5032353;28;20100;-77
2022/11/09 06:29:01;;;;;;;7.45;3.17;;;16.50;87.50;;;;;;5015840;28;20095;-77
2022/11/09 06:31:27;;;;;;;6.57;3.03;;;16.50;87.40;;;;;;5052198;28;20025;-77
2022/11/09 06:33:53;;;;;;;4.85;3.05;;;16.40;87.40;;;;;;5049873;28;20033;-76
2022/11/09 06:36:18;;;;;;;8.52;3.13;;;16.50;87.50;;;;;;5041909;28;20381;-76
2022/11/09 06:38:48;;;;;;;5.63;2.95;;;16.50;87.50;;;;;;5022415;28;20116;-76
2022/11/09 06:41:13;;;;;;;6.93;3.05;;;16.50;87.50;;;;;;5026745;28;20070;-78
2022/11/09 06:43:39;;;;;;;6.55;3.03;;;16.50;87.50;;;;;;5016527;28;20056;-77
2022/11/09 06:46:05;;;;;;;6.40;3.10;;;16.50;87.60;;;;;;5031859;28;20072;-78
2022/11/09 06:48:30;;;;;;;5.75;3.05;;;16.50;87.60;;;;;;5031726;28;20109;-77
2022/11/09 06:51:00;;;;;;;5.72;2.78;;;16.50;87.60;;;;;;5032591;28;20053;-77
2022/11/09 06:53:28;;;;;;;9.88;3.47;;;16.50;87.50;;;;;;5031269;28;20100;-77
2022/11/09 06:55:57;;;;;;;7.05;3.17;;;16.50;87.70;;;;;;5032347;28;20075;-77
2022/11/09 06:58:22;;;;;;;8.05;3.42;;;16.50;87.60;;;;;;5031120;28;20022;-77
2022/11/09 07:00:49;;;;;;;9.13;3.05;;;16.50;87.70;;;;;;5031142;28;20514;-76
2022/11/09 07:03:15;;;;;;;5.82;2.67;;;16.50;87.70;;;;;;5015056;28;20499;-77
2022/11/09 07:05:41;;;;;;;7.55;2.97;;;16.50;87.70;;;;;;5030873;28;20503;-77
2022/11/09 07:08:06;;;;;;;5.22;2.58;;;16.50;87.70;;;;;;5014604;28;20103;-77
2022/11/09 07:10:32;;;;;;;9.05;3.30;;;16.50;87.70;;;;;;5032463;28;20029;-77
2022/11/09 07:12:58;;;;;;;6.75;2.70;;;16.50;87.70;;;;;;5031016;28;20028;-77
2022/11/09 07:15:23;;;;;;;6.97;3.15;;;16.50;87.70;;;;;;5014572;28;20026;-78
2022/11/09 07:17:49;;;;;;;5.57;2.60;;;16.50;87.80;;;;;;5014595;28;20029;-77
2022/11/09 07:20:15;;;;;;;5.55;2.90;;;16.50;87.70;;;;;;5031931;28;20044;-78
2022/11/09 07:22:40;;;;;;;4.90;2.80;;;16.50;87.70;;;;;;5031017;28;20025;-77
2022/11/09 07:25:07;;;;;;;12.25;2.70;;;16.50;88.80;;;;;;5031081;28;20025;-76
2022/11/09 07:27:33;;;;;;;6.80;2.97;;;16.50;87.70;;;;;;5030859;28;20064;-76
2022/11/09 07:29:58;;;;;;;6.45;3.00;;;16.50;87.60;;;;;;5037258;28;20052;-76
2022/11/09 07:32:24;;;;;;;7.32;3.03;;;16.50;87.30;;;;;;5029636;28;20041;-76
2022/11/09 07:34:49;;;;;;;2.83;1.60;;;16.50;86.90;;;;;;5047600;28;20017;-76
2022/11/09 07:37:15;;;;;;;4.22;2.05;;;16.50;86.80;;;;;;5049410;28;20036;-76
2022/11/09 07:39:41;;;;;;;4.65;2.05;;;16.50;86.50;;;;;;5050351;28;20024;-76
2022/11/09 07:42:06;;;;;;;4.60;1.70;;;16.50;86.40;;;;;;5013803;28;20440;-76
2022/11/09 07:44:32;;;;;;;9.75;2.22;;;16.50;86.20;;;;;;5029660;28;20024;-76
2022/11/09 07:46:57;;;;;;;19.98;2.75;;;16.50;86.10;;;;;;5034541;28;20029;-75
2022/11/09 07:49:23;;;;;;;41.30;4.65;;;16.50;86.20;;;;;;5049555;28;20422;-75
2022/11/09 07:51:49;;;;;;;29.27;5.35;;;16.40;86.30;;;;;;5050811;28;20541;-75
2022/11/09 07:54:14;;;;;;;20.58;4.18;;;16.40;86.30;;;;;;5050732;28;20480;-75
2022/11/09 07:56:40;;;;;;;30.08;4.75;;;16.40;86.50;;;;;;5050616;28;20075;-75
2022/11/09 07:59:05;;;;;;;30.23;4.85;;;16.50;86.60;;;;;;5053199;28;20021;-75
2022/11/09 08:01:31;;;;;;;34.10;5.07;;;16.50;86.70;;;;;;5053609;28;20033;-75
2022/11/09 08:03:57;;;;;;;27.15;4.90;;;16.50;86.70;;;;;;5052523;28;20048;-75
2022/11/09 08:06:26;;;;;;;26.10;5.05;;;16.50;86.70;;;;;;5044037;28;20108;-74
2022/11/09 08:08:53;;;;;;;22.80;4.85;;;16.50;86.80;;;;;;5031427;28;20063;-75
2022/11/09 08:11:18;;;;;;;28.33;4.85;;;16.50;86.80;;;;;;5054219;28;20491;-75
2022/11/09 08:13:44;;;;;;;26.92;5.40;;;16.50;86.70;;;;;;5042768;28;20029;-75
2022/11/09 08:16:10;;;;;;;27.15;5.00;;;16.50;86.70;;;;;;5032745;28;20079;-75
2022/11/09 08:18:35;;;;;;;30.30;5.40;;;16.50;86.60;;;;;;5034005;28;20032;-75
2022/11/09 08:21:02;;;;;;;28.13;4.70;;;16.50;86.60;;;;;;5035882;28;20063;-75
2022/11/09 08:23:27;;;;;;;23.85;4.57;;;16.50;86.50;;;;;;5037474;28;20024;-75
2022/11/09 08:25:53;;;;;;;25.60;3.95;;;16.50;86.40;;;;;;5037294;28;20403;-75
2022/11/09 08:28:19;;;;;;;21.67;4.53;;;16.50;86.50;;;;;;5037222;28;20469;-75
2022/11/09 08:30:45;;;;;;;16.85;4.20;;;16.50;86.40;;;;;;5053661;28;20025;-75
2022/11/09 08:33:10;;;;;;;27.15;5.75;;;16.50;86.40;;;;;;5036974;28;20028;-75
2022/11/09 08:35:36;;;;;;;22.73;3.92;;;16.50;86.30;;;;;;5053791;28;20051;-75
2022/11/09 08:38:03;;;;;;;22.00;4.55;;;16.50;86.30;;;;;;5036567;28;20086;-75
2022/11/09 08:40:29;;;;;;;24.52;4.15;;;16.50;86.20;;;;;;5033928;28;20414;-75
2022/11/09 08:42:54;;;;;;;17.35;4.90;;;16.50;86.20;;;;;;5034843;28;20101;-75
2022/11/09 08:45:20;;;;;;;19.58;4.47;;;16.40;86.10;;;;;;5034875;28;20032;-75
2022/11/09 08:47:46;;;;;;;28.23;5.03;;;16.40;86.10;;;;;;5033389;28;20029;-75
2022/11/09 08:50:12;;;;;;;21.50;4.10;;;16.40;86.00;;;;;;5033546;28;20022;-74
2022/11/09 08:52:39;;;;;;;14.68;3.85;;;16.50;86.10;;;;;;5033741;28;20025;-75
2022/11/09 08:55:04;;;;;;;21.70;4.10;;;16.40;86.00;;;;;;5016816;28;20030;-75
2022/11/09 08:57:30;;;;;;;22.42;3.80;;;16.40;86.90;;;;;;5016803;28;20050;-75
2022/11/09 08:59:57;;;;;;;18.38;3.83;;;16.40;85.90;;;;;;5033324;28;20526;-75
2022/11/09 09:02:23;;;;;;;28.70;5.05;;;16.40;85.90;;;;;;5033265;28;20029;-75
2022/11/09 09:04:49;;;;;;;15.73;3.55;;;16.40;85.90;;;;;;5024116;28;20029;-75
2022/11/09 09:07:15;;;;;;;24.80;4.05;;;16.40;85.90;;;;;;5054373;28;20032;-75
2022/11/09 09:09:40;;;;;;;18.17;3.50;;;16.40;85.80;;;;;;5052708;28;20028;-75
2022/11/09 09:12:06;;;;;;;17.05;3.92;;;16.40;85.80;;;;;;5054123;28;20025;-75
2022/11/09 09:14:32;;;;;;;18.38;3.60;;;16.40;85.70;;;;;;5034458;28;20029;-75
2022/11/09 09:16:58;;;;;;;14.75;3.88;;;16.40;85.70;;;;;;5032651;28;20246;-75
2022/11/09 09:19:24;;;;;;;16.30;3.67;;;16.40;85.70;;;;;;5033014;28;20083;-75
2022/11/09 09:21:49;;;;;;;16.40;3.88;;;16.40;85.70;;;;;;5033045;28;20018;-75
2022/11/09 09:24:15;;;;;;;13.73;3.97;;;16.40;85.60;;;;;;5032927;28;20083;-75
2022/11/09 09:26:40;;;;;;;19.25;4.07;;;16.40;85.60;;;;;;5034344;28;20022;-75
2022/11/09 09:29:06;;;;;;;15.43;3.38;;;16.40;85.60;;;;;;5033866;28;20025;-75
2022/11/09 09:31:32;;;;;;;13.07;3.05;;;16.40;85.60;;;;;;5032578;28;20395;-75
2022/11/09 09:33:57;;;;;;;15.13;3.60;;;16.40;85.60;;;;;;5033826;28;20022;-75
2022/11/09 09:36:23;;;;;;;14.73;3.80;;;16.40;86.60;;;;;;5033788;28;20029;-74
2022/11/09 09:38:50;;;;;;;17.52;3.63;;;16.40;85.50;;;;;;5032611;28;20029;-75
2022/11/09 09:41:34;;;;;;;11.32;3.63;;;16.40;85.50;;;;;;5032595;28;20021;-75
2022/11/09 09:44:40;;;;;;;13.32;3.30;;;16.40;85.50;;;;;;5033807;28;20028;-75
2022/11/09 09:47:37;;;;;;;14.27;3.63;;;16.40;85.50;;;;;;5032059;28;20105;-75
2022/11/09 09:50:24;;;;;;;12.77;3.58;;;16.40;85.50;;;;;;5015793;28;20026;-75
2022/11/09 09:53:10;;;;;;;10.77;3.08;;;16.40;85.50;;;;;;5033170;28;20468;-75
2022/11/09 09:55:41;;;;;;;12.88;3.13;;;16.40;85.50;;;;;;5033664;28;20084;-75
2022/11/09 09:58:18;;;;;;;14.48;3.53;;;16.40;85.50;;;;;;5032416;28;20041;-75
2022/11/09 10:00:44;;;;;;;15.02;3.80;;;16.40;85.50;;;;;;5032005;28;20033;-75
2022/11/09 10:03:17;;;;;;;9.90;3.00;;;16.40;85.50;;;;;;5015649;28;20545;-75
2022/11/09 10:05:43;;;;;;;9.85;2.95;;;16.40;85.50;;;;;;5031807;28;20029;-75
2022/11/09 10:08:13;;;;;;;12.15;3.42;;;16.40;85.50;;;;;;5033248;28;20029;-75
2022/11/09 10:10:45;;;;;;;11.90;2.60;;;16.40;85.50;;;;;;5032164;28;20030;-75
2022/11/09 10:13:42;;;;;;;11.27;3.40;;;16.40;85.50;;;;;;5040818;28;20391;-75
2022/11/09 10:16:17;;;;;;;13.55;2.95;;;16.40;85.40;;;;;;5051771;28;20021;-75
2022/11/09 10:18:46;;;;;;;8.98;3.05;;;16.40;85.50;;;;;;5051828;28;20078;-75
2022/11/09 10:21:50;;;;;;;11.63;3.00;;;16.30;85.40;;;;;;5050940;28;20391;-75
2022/11/09 10:24:44;;;;;;;12.93;3.25;;;16.40;85.40;;;;;;5052142;28;20033;-75
2022/11/09 10:27:30;;;;;;;11.82;3.20;;;16.30;85.40;;;;;;5037519;28;20025;-75
2022/11/09 10:29:56;;;;;;;11.20;3.08;;;16.40;85.40;;;;;;5035484;28;20017;-75
2022/11/09 10:32:22;;;;;;;21.90;3.05;;;16.30;85.40;;;;;;5035015;28;20565;-75
2022/11/09 10:34:52;;;;;;;11.98;2.90;;;16.30;85.40;;;;;;5051643;28;20386;-75
2022/11/09 10:37:37;;;;;;;9.27;2.85;;;16.30;85.40;;;;;;5051513;28;20074;-75
2022/11/09 10:40:08;;;;;;;11.52;2.83;;;16.30;85.40;;;;;;5051541;28;20031;-75
2022/11/09 10:42:34;;;;;;;13.80;2.53;;;16.40;85.50;;;;;;5051570;28;20025;-75
2022/11/09 10:45:09;;;;;;;17.10;2.60;;;16.40;85.40;;;;;;5034648;28;20501;-75
2022/11/09 10:47:49;;;;;;;12.63;2.80;;;16.30;85.30;;;;;;5035799;28;20040;-75
2022/11/09 10:50:30;;;;;;;9.00;2.40;;;16.30;85.40;;;;;;5035155;28;20063;-75
2022/11/09 10:53:18;;;;;;;12.02;2.65;;;16.30;85.40;;;;;;5051186;28;20116;-75
2022/11/09 10:55:54;;;;;;;8.50;2.30;;;16.40;85.40;;;;;;5052236;28;20043;-75
2022/11/09 10:58:34;;;;;;;10.27;2.53;;;16.40;85.40;;;;;;5050871;28;20124;-75
2022/11/09 11:01:22;;;;;;;10.48;2.40;;;16.40;85.30;;;;;;5034447;28;20021;-75
2022/11/09 11:03:52;;;;;;;11.23;2.75;;;16.30;85.30;;;;;;5051329;28;20116;-75
2022/11/09 11:06:21;;;;;;;9.80;2.95;;;16.30;85.30;;;;;;5015092;28;20108;-75
2022/11/09 11:08:53;;;;;;;8.30;2.50;;;16.30;85.40;;;;;;5032458;28;20059;-75
2022/11/09 11:11:26;;;;;;;8.05;2.53;;;16.30;85.40;;;;;;5031123;28;20451;-75
2022/11/09 11:14:13;;;;;;;5.85;2.08;;;16.30;85.30;;;;;;5041528;28;20071;-75
2022/11/09 11:16:39;;;;;;;8.65;2.83;;;16.30;85.30;;;;;;5031278;28;20022;-75
2022/11/09 11:19:05;;;;;;;6.85;2.17;;;16.30;85.30;;;;;;5047396;28;20030;-75
2022/11/09 11:21:30;;;;;;;10.70;2.42;;;16.30;85.30;;;;;;5047822;28;20075;-75
2022/11/09 11:24:02;;;;;;;10.45;2.88;;;16.30;85.30;;;;;;5031186;28;20048;-75
2022/11/09 11:26:33;;;;;;;10.10;2.00;;;16.30;85.30;;;;;;5032225;28;20033;-75
2022/11/09 11:29:00;;;;;;;7.72;2.30;;;16.30;85.30;;;;;;5047439;28;20109;-75
2022/11/09 11:31:26;;;;;;;10.48;2.75;;;16.30;85.20;;;;;;5047309;28;20026;-75
2022/11/09 11:33:52;;;;;;;9.05;2.60;;;16.30;85.30;;;;;;5034599;28;20025;-75
2022/11/09 11:36:26;;;;;;;7.18;2.67;;;16.30;85.20;;;;;;5051469;28;20032;-75
2022/11/09 11:39:30;;;;;;;11.93;2.33;;;16.30;85.20;;;;;;5051509;28;20523;-75
2022/11/09 11:42:13;;;;;;;6.40;1.98;;;16.30;85.20;;;;;;5035993;28;20029;-75
2022/11/09 11:44:55;;;;;;;9.52;2.03;;;16.30;85.20;;;;;;5036251;28;20036;-75
2022/11/09 11:47:44;;;;;;;5.43;1.85;;;16.30;85.20;;;;;;5034643;28;20091;-75
2022/11/09 11:50:30;;;;;;;10.23;2.28;;;16.30;85.30;;;;;;5051212;28;20454;-75
2022/11/09 11:53:02;;;;;;;11.52;3.53;;;16.30;85.20;;;;;;5034515;28;20021;-75
2022/11/09 11:55:48;;;;;;;12.00;2.57;;;16.30;85.20;;;;;;5035818;28;20048;-75
2022/11/09 11:58:36;;;;;;;9.20;2.35;;;16.30;85.20;;;;;;5038390;28;20060;-75
2022/11/09 12:01:38;;;;;;;13.07;2.50;;;16.30;85.30;;;;;;5050809;28;20483;-75
2022/11/09 12:04:15;;;;;;;10.13;2.53;;;16.40;85.30;;;;;;5034949;28;20032;-75
2022/11/09 12:06:41;;;;;;;11.57;2.40;;;16.30;85.20;;;;;;5033449;28;20061;-75
2022/11/09 12:09:34;;;;;;;6.32;1.70;;;16.40;85.30;;;;;;5033203;28;20140;-75
2022/11/09 12:12:02;;;;;;;;;;;16.30;85.20;;;;;;5033634;28;20079;-75
2022/11/09 12:14:46;;;;;;;9.27;1.98;;;16.30;85.20;;;;;;5052682;28;19904;-75
2022/11/09 12:17:25;;;;;;;7.75;1.90;;;16.30;85.20;;;;;;5036333;28;20514;-75
2022/11/09 12:20:09;;;;;;;7.40;1.88;;;16.40;85.30;;;;;;5036627;28;20044;-75
2022/11/09 12:23:02;;;;;;;8.60;2.20;;;16.40;86.30;;;;;;5036652;28;20053;-75
2022/11/09 12:25:45;;;;;;;;;;;16.30;85.30;;;;;;5053212;28;20029;-75
2022/11/09 12:28:19;;;;;;;8.48;2.08;;;16.40;85.30;;;;;;5036152;28;19932;-75
2022/11/09 12:30:51;;;;;;;9.57;2.05;;;16.40;85.40;;;;;;5019624;28;20052;-75
2022/11/09 12:33:26;;;;;;;7.78;1.95;;;16.40;85.40;;;;;;5052907;28;20090;-75
2022/11/09 12:35:57;;;;;;;9.32;1.90;;;16.40;85.30;;;;;;5036426;28;20029;-75
2022/11/09 12:38:32;;;;;;;10.40;2.30;;;16.40;85.30;;;;;;5052533;28;20037;-75
2022/11/09 12:41:14;;;;;;;5.97;1.70;;;16.40;85.30;;;;;;5049197;28;20025;-75
2022/11/09 12:44:01;;;;;;;4.63;1.75;;;16.40;85.20;;;;;;5032753;28;20486;-75
2022/11/09 12:47:03;;;;;;;10.70;2.10;;;16.40;85.20;;;;;;5033730;28;20034;-75
2022/11/09 12:49:37;;;;;;;8.15;2.13;;;16.40;85.30;;;;;;5046274;28;20041;-75
2022/11/09 12:52:05;;;;;;;6.72;2.28;;;16.40;85.30;;;;;;5033545;28;20099;-75